createdAt,value
2023-02-07T00:06:37.375Z,-8.40
2023-02-07T00:18:37.810Z,-9.38
2023-02-07T00:30:38.315Z,-9.12
2023-02-07T00:42:38.735Z,-9.58
2023-02-07T00:54:39.156Z,-9.64
2023-02-07T01:06:39.601Z,-9.90
2023-02-07T01:18:40.078Z,-9.44
2023-02-07T01:30:40.638Z,-9.27
2023-02-07T01:42:41.004Z,-9.56
2023-02-07T01:54:41.410Z,-8.97
2023-02-07T02:06:41.880Z,-9.44
2023-02-07T02:18:42.342Z,-9.69
2023-02-07T02:30:42.796Z,-9.83
2023-02-07T02:42:43.213Z,-9.99
2023-02-07T02:54:43.673Z,-10.37
2023-02-07T03:06:44.189Z,-9.89
2023-02-07T03:18:44.585Z,-9.96
2023-02-07T03:30:45.164Z,-10.42
2023-02-07T03:42:45.498Z,-10.18
2023-02-07T03:54:45.965Z,-10.17
2023-02-07T04:06:46.376Z,-10.75
2023-02-07T04:18:46.840Z,-9.75
2023-02-07T04:30:47.373Z,-10.24
2023-02-07T04:42:47.720Z,-10.02
2023-02-07T04:54:48.175Z,-10.60
2023-02-07T05:06:48.628Z,-9.91
2023-02-07T05:18:49.071Z,-10.27
2023-02-07T05:30:49.651Z,-10.76
2023-02-07T05:42:49.990Z,-10.13
2023-02-07T05:54:50.444Z,-11.12
2023-02-07T06:06:50.889Z,-10.57
2023-02-07T06:18:51.475Z,-10.81
2023-02-07T06:30:51.893Z,-10.40
2023-02-07T06:42:52.209Z,-10.77
2023-02-07T06:54:52.715Z,-10.11
2023-02-07T07:06:53.521Z,-10.91
2023-02-07T07:18:53.598Z,-10.41
2023-02-07T07:30:54.096Z,-10.17
2023-02-07T07:42:54.485Z,-9.66
2023-02-07T07:54:54.972Z,-8.87
2023-02-07T08:06:55.446Z,-7.67
2023-02-07T08:18:55.878Z,-6.95
2023-02-07T08:30:56.271Z,-6.53
2023-02-07T08:42:56.750Z,-5.32
2023-02-07T08:54:57.196Z,-4.66
2023-02-07T09:06:57.675Z,-3.76
2023-02-07T09:18:58.072Z,-3.18
2023-02-07T09:30:58.671Z,-2.53
2023-02-07T09:42:59.320Z,-2.30
2023-02-07T09:54:59.511Z,-1.42
2023-02-07T10:06:59.951Z,-1.08
2023-02-07T10:19:00.372Z,-0.62
2023-02-07T10:31:00.946Z,-0.02
2023-02-07T10:43:01.308Z,0.22
2023-02-07T10:55:01.699Z,0.07
2023-02-07T11:07:02.208Z,0.26
2023-02-07T11:19:02.646Z,0.83
2023-02-07T11:31:03.279Z,1.80
2023-02-07T11:43:03.591Z,0.24
2023-02-07T11:55:03.989Z,0.93
2023-02-07T12:07:04.438Z,2.55
2023-02-07T12:19:04.944Z,2.69
2023-02-07T12:31:06.555Z,1.73
2023-02-07T12:43:05.841Z,0.89
2023-02-07T12:55:06.268Z,1.04
2023-02-07T13:07:06.710Z,1.43
2023-02-07T13:19:07.151Z,1.94
2023-02-07T13:31:07.654Z,1.41
2023-02-07T13:43:08.108Z,1.33
2023-02-07T13:55:08.534Z,1.51
2023-02-07T14:07:08.996Z,1.14
2023-02-07T14:19:09.442Z,0.44
2023-02-07T14:31:09.959Z,0.03
2023-02-07T14:43:10.367Z,-0.20
2023-02-07T14:55:10.800Z,-0.32
2023-02-07T15:07:11.244Z,-0.49
2023-02-07T15:19:11.777Z,-1.05
2023-02-07T15:31:13.246Z,-1.47
2023-02-07T15:43:13.036Z,-1.50
2023-02-07T15:55:13.072Z,-1.81
2023-02-07T16:07:13.498Z,-2.44
2023-02-07T16:19:13.980Z,-2.75
2023-02-07T16:31:14.472Z,-3.19
2023-02-07T16:43:14.869Z,-3.20
2023-02-07T16:55:15.348Z,-3.45
2023-02-07T17:17:19.393Z,-3.73
2023-02-07T17:29:19.830Z,-3.99
2023-02-07T17:41:20.308Z,-4.08
2023-02-07T17:53:20.717Z,-4.19
2023-02-07T18:05:21.183Z,-4.45
2023-02-07T18:17:21.593Z,-4.48
2023-02-07T18:29:22.104Z,-4.72
2023-02-07T18:41:22.931Z,-4.84
2023-02-07T18:53:22.990Z,-4.99
2023-02-07T19:05:23.418Z,-5.14
2023-02-07T19:17:25.206Z,-5.62
2023-02-07T19:29:24.351Z,-5.47
2023-02-07T19:41:24.781Z,-5.68
2023-02-07T19:53:25.268Z,-5.67
2023-02-07T20:05:25.760Z,-5.66
2023-02-07T20:17:26.162Z,-5.93
2023-02-07T20:29:26.627Z,-6.00
2023-02-07T20:41:27.077Z,-6.02
2023-02-07T20:53:27.533Z,-6.21
2023-02-07T21:05:27.973Z,-6.31
2023-02-07T21:17:28.459Z,-6.56
2023-02-07T21:29:28.842Z,-6.24
2023-02-07T21:41:29.302Z,-5.83
2023-02-07T21:53:29.769Z,-5.57
2023-02-07T22:05:30.227Z,-5.44
2023-02-07T22:17:30.656Z,-5.38
2023-02-07T22:29:31.166Z,-5.46
2023-02-07T22:41:31.563Z,-5.19
2023-02-07T22:53:32.000Z,-5.46
2023-02-07T23:05:32.473Z,-5.11
2023-02-07T23:17:32.934Z,-4.94
2023-02-07T23:29:33.375Z,-4.46
2023-02-07T23:41:33.832Z,-4.07
2023-02-07T23:53:34.272Z,-4.36
